MOL Modern — V7VS6 — position and weather

sailwx.info

Track history (hours):
 
Tides and Currents Weather Stations Pressure Air Temp Water Temp Dewpoint Dewpoint Depression Visibility Wind Speed Wind Dir Waves Ship Positions

MOL Modern

Last reported at 2017-Nov-12 09:43 UTC. Time now 2017-Nov-18 01:17 UTC.
Position N 23°29' W 112°32'.

Length 302 m; draft 13.3 m.

Type: Ship (hazmat cat A). MMSI: 538004203.

Date/timePositionNaut miles runAvg speedWind from/ knotsBaromVisibWave heightAir tempDewpointWater temp
2017-Nov-12 09:43N 23°29' W 112°32'421.1
2017-Nov-12 09:30N 23°31' W 112°36'1121.1
2017-Nov-12 09:00N 23°37' W 112°46'1121.5
2017-Nov-12 08:30N 23°42' W 112°56'1121.5
2017-Nov-12 08:00N 23°48' W 113°06'1321.4
2017-Nov-12 07:23N 23°55' W 113°18'3221.2
2017-Nov-12 05:53N 24°11' W 113°48'821.0
2017-Nov-12 05:29N 24°15' W 113°56'2521.0
2017-Nov-12 04:18N 24°28' W 114°20'1120.5
2017-Nov-12 03:45N 24°34' W 114°30'520.6
2017-Nov-12 03:30N 24°36' W 114°35'  
Track history (hours):
 
Tides and Currents Weather Stations Pressure Air Temp Water Temp Dewpoint Dewpoint Depression Visibility Wind Speed Wind Dir Waves Ship Positions

MOL Modern

Last reported at 2017-Nov-12 09:43 UTC. Time now 2017-Nov-18 01:17 UTC.
Position N 23°29' W 112°32'.

Length 302 m; draft 13.3 m.

Type: Ship (hazmat cat A). MMSI: 538004203.

Date/timePositionNaut miles runAvg speedWind from/ knotsBaromVisibWave heightAir tempDewpointWater temp
2017-Nov-12 09:43N 23°29' W 112°32'421.1
2017-Nov-12 09:30N 23°31' W 112°36'1121.1
2017-Nov-12 09:00N 23°37' W 112°46'1121.5
2017-Nov-12 08:30N 23°42' W 112°56'1121.5
2017-Nov-12 08:00N 23°48' W 113°06'1321.4
2017-Nov-12 07:23N 23°55' W 113°18'3221.2
2017-Nov-12 05:53N 24°11' W 113°48'821.0
2017-Nov-12 05:29N 24°15' W 113°56'2521.0
2017-Nov-12 04:18N 24°28' W 114°20'1120.5
2017-Nov-12 03:45N 24°34' W 114°30'520.6
2017-Nov-12 03:30N 24°36' W 114°35'  

Dump ship's entire track history